Time;durP1;ratioP1;P1;durP2;ratioP2;P2;SDS_P1;SDS_P2;PMS_P1;PMS_P2;Temp;Humidity;BMP_temperature;BMP_pressure;BME280_temperature;BME280_humidity;BME280_pressure;Samples;Min_cycle;Max_cycle;Signal;HPM_P1;HPM_P2
2023/07/20 00:01:51;;;;;;;5.35;4.07;;;;;;;16.22;94.46;101491.88;6189138;23;20018;-76
2023/07/20 00:04:18;;;;;;;4.30;3.90;;;;;;;16.21;94.57;101485.00;6188899;23;20076;-75
2023/07/20 00:06:45;;;;;;;7.35;3.97;;;;;;;16.20;94.49;101485.47;6188000;23;20017;-76
2023/07/20 00:09:12;;;;;;;4.70;4.25;;;;;;;16.19;95.19;101487.41;6188944;23;20037;-76
2023/07/20 00:11:39;;;;;;;4.50;4.07;;;;;;;16.17;95.43;101484.44;6161984;23;20017;-76
2023/07/20 00:14:08;;;;;;;4.90;3.85;;;;;;;16.13;95.70;101489.25;6188928;23;20422;-77
2023/07/20 00:16:35;;;;;;;3.72;3.47;;;;;;;16.07;96.33;101487.66;6188437;23;20020;-76
2023/07/20 00:19:01;;;;;;;5.28;3.47;;;;;;;16.04;96.27;101485.88;6189588;23;20014;-76
2023/07/20 00:21:28;;;;;;;3.35;3.15;;;;;;;16.00;95.73;101484.13;6188985;23;20017;-75
2023/07/20 00:23:55;;;;;;;3.50;3.20;;;;;;;16.01;95.43;101487.53;6190104;23;20091;-75
2023/07/20 00:26:21;;;;;;;3.28;3.08;;;;;;;16.04;95.22;101491.25;6189245;23;20040;-75
2023/07/20 00:28:50;;;;;;;3.25;3.05;;;;;;;16.05;94.91;101492.75;6189450;23;20047;-76
2023/07/20 00:31:18;;;;;;;3.47;2.63;;;;;;;16.02;94.89;101489.03;6162885;23;20018;-76
2023/07/20 00:33:45;;;;;;;3.40;2.80;;;;;;;15.99;94.60;101498.75;6163502;23;20032;-76
2023/07/20 00:36:12;;;;;;;2.83;2.58;;;;;;;15.93;95.02;101491.81;6189545;23;20021;-76
2023/07/20 00:38:42;;;;;;;2.45;2.25;;;;;;;15.88;94.83;101489.75;6163355;23;20017;-76
2023/07/20 00:41:09;;;;;;;4.28;1.85;;;;;;;15.85;94.61;101487.97;6189890;23;20436;-76
2023/07/20 00:43:35;;;;;;;1.90;1.80;;;;;;;15.81;94.63;101484.72;6162651;23;20018;-76
2023/07/20 00:46:02;;;;;;;4.38;2.20;;;;;;;15.77;94.83;101492.19;6189956;23;20022;-77
2023/07/20 00:48:30;;;;;;;2.13;2.00;;;;;;;15.74;94.87;101487.75;6137977;23;20018;-76
2023/07/20 00:50:59;;;;;;;1.77;1.67;;;;;;;15.68;94.72;101487.63;6162690;23;20063;-76
2023/07/20 00:53:26;;;;;;;2.10;1.90;;;;;;;15.65;95.03;101483.91;6189197;23;20073;-76
2023/07/20 00:55:53;;;;;;;1.60;1.50;;;;;;;15.62;95.11;101484.81;6189861;23;20013;-76
2023/07/20 00:58:20;;;;;;;4.25;1.52;;;;;;;15.59;95.40;101480.38;6188953;23;20494;-75
2023/07/20 01:00:47;;;;;;;1.85;1.75;;;;;;;15.54;95.51;101483.66;6189797;23;20100;-77
2023/07/20 01:03:14;;;;;;;1.70;1.60;;;;;;;15.53;95.35;101484.84;6189867;23;20052;-77
2023/07/20 01:05:51;;;;;;;1.80;1.70;;;;;;;15.52;95.53;101496.03;6188629;23;20026;-78
2023/07/20 01:08:25;;;;;;;2.47;1.85;;;;;;;15.49;95.27;101491.59;6163635;23;20080;-77
2023/07/20 01:10:59;;;;;;;1.88;1.77;;;;;;;15.45;95.39;101496.38;6189755;23;20014;-77
2023/07/20 01:13:26;;;;;;;1.52;1.45;;;;;;;15.40;95.89;101497.00;6162811;23;20053;-76
2023/07/20 01:16:02;;;;;;;1.77;1.67;;;;;;;15.32;95.43;101497.31;6163287;23;20017;-75
2023/07/20 01:18:29;;;;;;;2.15;1.50;;;;;;;15.29;96.05;101497.47;6161937;23;20411;-76
2023/07/20 01:21:03;;;;;;;1.90;1.80;;;;;;;15.27;96.00;101484.50;6162800;23;20036;-76
2023/07/20 01:23:50;;;;;;;1.70;1.63;;;;;;;15.22;95.83;101484.38;6188809;23;20523;-76
2023/07/20 01:26:35;;;;;;;1.42;1.38;;;;;;;15.23;96.35;101488.56;6162924;23;20485;-77
2023/07/20 01:29:02;;;;;;;1.77;1.67;;;;;;;15.20;95.76;101487.53;6157630;23;20026;-77
2023/07/20 01:31:36;;;;;;;1.60;1.50;;;;;;;15.17;95.94;101488.44;6158155;23;20034;-76
2023/07/20 01:34:05;;;;;;;1.73;1.63;;;;;;;15.15;95.40;101490.09;6159217;23;20017;-77
2023/07/20 01:36:36;;;;;;;1.58;1.48;;;;;;;15.12;95.18;101491.75;6157184;23;20018;-76
2023/07/20 01:39:04;;;;;;;1.73;1.60;;;;;;;15.09;95.86;101486.53;6157976;23;20021;-76
2023/07/20 01:41:31;;;;;;;2.70;1.70;;;;;;;15.04;95.68;101492.50;6157026;23;20444;-76
2023/07/20 01:43:59;;;;;;;2.30;1.55;;;;;;;15.00;95.36;101484.63;6159906;23;20018;-76
2023/07/20 01:46:25;;;;;;;1.80;1.50;;;;;;;14.97;95.25;101483.59;6158685;23;20017;-76
2023/07/20 01:48:54;;;;;;;1.60;1.50;;;;;;;14.95;95.28;101483.28;6157032;23;20460;-76
2023/07/20 01:51:21;;;;;;;1.75;1.65;;;;;;;14.93;94.69;101495.66;6159107;23;20018;-76
2023/07/20 01:53:48;;;;;;;1.58;1.48;;;;;;;14.87;95.53;101494.78;6157862;23;20100;-76
2023/07/20 01:56:14;;;;;;;1.42;1.40;;;;;;;14.83;95.17;101502.97;6159512;23;20487;-76
2023/07/20 01:58:41;;;;;;;2.85;1.42;;;;;;;14.78;95.28;101510.91;6156976;23;20024;-76
2023/07/20 02:01:08;;;;;;;1.60;1.50;;;;;;;14.73;95.20;101506.88;6157398;23;20018;-76
2023/07/20 02:03:35;;;;;;;1.55;1.45;;;;;;;14.65;95.10;101501.09;6158105;23;20074;-76
2023/07/20 02:06:02;;;;;;;1.70;1.60;;;;;;;14.61;95.12;101505.09;6157899;23;20026;-76
2023/07/20 02:08:28;;;;;;;1.50;1.40;;;;;;;14.59;95.28;101496.78;6157044;23;20048;-77
2023/07/20 02:10:56;;;;;;;1.67;1.38;;;;;;;14.59;95.16;101499.44;6159175;23;20333;-77
2023/07/20 02:13:23;;;;;;;1.58;1.48;;;;;;;14.58;95.84;101495.28;6156834;23;20026;-77
2023/07/20 02:15:50;;;;;;;1.65;1.50;;;;;;;14.56;95.91;101498.41;6133198;23;20498;-76
2023/07/20 02:18:17;;;;;;;1.70;1.60;;;;;;;14.56;96.07;101503.03;6157594;23;20022;-76
2023/07/20 02:20:44;;;;;;;1.20;1.20;;;;;;;14.57;96.03;101499.16;6157537;23;20025;-76
2023/07/20 02:23:11;;;;;;;1.50;1.40;;;;;;;14.58;96.37;101503.31;6133195;23;20558;-76
2023/07/20 02:25:39;;;;;;;1.40;1.40;;;;;;;14.56;96.35;101503.78;6157139;23;20318;-76
2023/07/20 02:28:08;;;;;;;1.77;1.67;;;;;;;14.55;96.67;101498.84;6157534;23;20036;-76
2023/07/20 02:30:38;;;;;;;1.63;1.52;;;;;;;14.54;96.63;101508.09;6158153;23;20018;-76
2023/07/20 02:33:06;;;;;;;1.48;1.38;;;;;;;14.50;96.96;101505.56;6159772;23;20018;-76
2023/07/20 02:35:33;;;;;;;1.50;1.50;;;;;;;14.49;96.86;101501.38;6158879;23;20018;-76
2023/07/20 02:37:59;;;;;;;1.60;1.50;;;;;;;14.43;96.90;101497.81;6157815;23;20032;-76
2023/07/20 02:40:27;;;;;;;1.85;1.70;;;;;;;14.38;97.09;101500.34;6156840;23;20097;-76
2023/07/20 02:42:54;;;;;;;1.80;1.70;;;;;;;14.36;97.27;101500.78;6159517;23;20073;-76
2023/07/20 02:45:20;;;;;;;1.50;1.40;;;;;;;14.34;96.97;101495.88;6156586;23;20597;-76
2023/07/20 02:47:47;;;;;;;1.40;1.40;;;;;;;14.30;96.34;101495.28;6157769;23;20474;-76
2023/07/20 02:50:14;;;;;;;1.35;1.33;;;;;;;14.29;96.26;101495.72;6158135;23;20021;-76
2023/07/20 02:52:40;;;;;;;1.63;1.50;;;;;;;14.27;96.34;101495.44;6156860;23;20105;-76
2023/07/20 02:55:07;;;;;;;1.48;1.45;;;;;;;14.22;96.07;101502.13;6158107;23;20018;-76
2023/07/20 02:57:34;;;;;;;2.75;1.73;;;;;;;14.20;95.68;101506.44;6157124;23;20879;-76
2023/07/20 03:00:04;;;;;;;1.48;1.38;;;;;;;14.17;96.61;101510.75;6158945;23;20018;-77
2023/07/20 03:02:30;;;;;;;1.50;1.50;;;;;;;14.13;96.94;101515.50;6158656;23;20022;-76
2023/07/20 03:05:00;;;;;;;1.70;1.60;;;;;;;14.13;96.24;101518.16;6133255;23;20048;-77
2023/07/20 03:07:30;;;;;;;1.60;1.50;;;;;;;14.09;95.85;101520.25;6157082;23;20547;-76
2023/07/20 03:09:57;;;;;;;1.48;1.42;;;;;;;14.05;96.03;101527.69;6157559;23;20018;-77
2023/07/20 03:12:24;;;;;;;1.77;1.67;;;;;;;14.02;95.42;101528.56;6158550;23;20096;-77
2023/07/20 03:14:51;;;;;;;1.73;1.42;;;;;;;13.98;94.88;101530.66;6158568;23;20018;-77
2023/07/20 03:17:17;;;;;;;1.55;1.55;;;;;;;13.94;94.47;101533.47;6157651;23;20463;-77
2023/07/20 03:19:45;;;;;;;1.50;1.50;;;;;;;13.92;95.12;101543.13;6157635;23;20022;-77
2023/07/20 03:22:12;;;;;;;1.52;1.52;;;;;;;13.89;95.75;101544.75;6157703;23;20344;-77
2023/07/20 03:24:38;;;;;;;1.63;1.52;;;;;;;13.89;95.68;101546.69;6158731;23;20175;-76
2023/07/20 03:27:05;;;;;;;1.65;1.58;;;;;;;13.88;95.89;101539.84;6160776;23;20018;-77
2023/07/20 03:29:33;;;;;;;1.40;1.40;;;;;;;13.86;96.25;101542.22;6161289;23;20017;-77
2023/07/20 03:32:00;;;;;;;1.90;1.80;;;;;;;13.83;96.05;101533.16;6162549;23;20026;-77
2023/07/20 03:34:26;;;;;;;1.75;1.65;;;;;;;13.81;95.37;101540.88;6188347;23;20422;-77
2023/07/20 03:36:53;;;;;;;1.80;1.70;;;;;;;13.79;95.40;101534.47;6162287;23;20404;-77
2023/07/20 03:39:20;;;;;;;1.50;1.40;;;;;;;13.78;95.25;101532.97;6161548;23;20081;-77
2023/07/20 03:41:46;;;;;;;2.08;1.73;;;;;;;13.76;95.99;101538.03;6162317;23;20059;-77
2023/07/20 03:44:13;;;;;;;2.53;1.83;;;;;;;13.76;95.53;101540.69;6188398;23;20028;-77
2023/07/20 03:46:40;;;;;;;1.80;1.70;;;;;;;13.73;96.07;101545.00;6187817;23;20080;-77
2023/07/20 03:49:08;;;;;;;1.83;1.70;;;;;;;13.72;96.09;101540.09;6161732;23;20105;-77
2023/07/20 03:51:36;;;;;;;1.80;1.70;;;;;;;13.71;96.00;101541.28;6188090;23;20460;-77
2023/07/20 03:54:02;;;;;;;1.92;1.83;;;;;;;13.68;96.30;101546.31;6162128;23;20447;-76
2023/07/20 03:56:34;;;;;;;1.90;1.80;;;;;;;13.62;97.00;101542.72;6188166;23;20456;-76
2023/07/20 03:59:01;;;;;;;2.80;1.92;;;;;;;13.60;96.70;101544.34;6188000;23;20097;-76
2023/07/20 04:01:28;;;;;;;2.13;1.92;;;;;;;13.55;96.25;101543.03;6136773;23;20049;-76
2023/07/20 04:03:55;;;;;;;1.90;1.80;;;;;;;13.54;96.04;101540.78;6162100;23;20049;-76
2023/07/20 04:06:22;;;;;;;1.85;1.75;;;;;;;13.51;95.70;101550.44;6161821;23;20017;-76
2023/07/20 04:08:49;;;;;;;1.88;1.77;;;;;;;13.47;95.50;101544.47;6188724;23;20013;-77
2023/07/20 04:11:16;;;;;;;1.90;1.80;;;;;;;13.45;95.96;101548.78;6188752;23;20049;-77
2023/07/20 04:13:42;;;;;;;2.17;2.05;;;;;;;13.38;96.17;101557.78;6160881;23;20054;-77
2023/07/20 04:16:09;;;;;;;1.90;1.80;;;;;;;13.35;96.65;101561.34;6188813;23;20479;-77
2023/07/20 04:18:36;;;;;;;1.75;1.65;;;;;;;13.35;96.72;101561.34;6188001;23;20018;-77
2023/07/20 04:21:02;;;;;;;2.83;1.95;;;;;;;13.33;96.90;101563.72;6162009;23;20415;-77
2023/07/20 04:23:29;;;;;;;1.80;1.70;;;;;;;13.35;96.98;101567.44;6161094;23;20531;-77
2023/07/20 04:25:56;;;;;;;2.13;2.03;;;;;;;13.38;97.08;101562.41;6188655;23;20344;-77
2023/07/20 04:28:23;;;;;;;3.80;1.90;;;;;;;13.43;97.02;101570.59;6186630;23;20022;-77
2023/07/20 04:30:51;;;;;;;2.15;2.05;;;;;;;13.43;97.33;101567.19;6162011;23;20032;-77
2023/07/20 04:33:18;;;;;;;2.33;2.22;;;;;;;13.44;97.09;101572.09;6161788;23;20076;-77
2023/07/20 04:35:50;;;;;;;2.03;1.92;;;;;;;13.41;97.06;101567.63;6161904;23;20018;-77
2023/07/20 04:38:29;;;;;;;2.00;1.90;;;;;;;13.39;96.86;101566.56;6161111;23;20117;-76
2023/07/20 04:41:12;;;;;;;2.05;1.95;;;;;;;13.36;96.85;101568.19;6161507;23;20407;-77
2023/07/20 04:43:44;;;;;;;2.40;2.30;;;;;;;13.35;96.96;101578.13;6160991;23;20443;-77
2023/07/20 04:46:13;;;;;;;2.50;2.30;;;;;;;13.36;96.90;101581.56;6161523;23;20320;-77
2023/07/20 04:48:41;;;;;;;2.03;1.92;;;;;;;13.38;96.73;101579.19;6160694;23;20025;-77
2023/07/20 04:51:10;;;;;;;2.35;2.25;;;;;;;13.43;96.73;101581.31;6161876;23;20774;-77
2023/07/20 04:53:36;;;;;;;2.85;2.40;;;;;;;13.49;96.53;101584.91;6160728;23;20021;-77
2023/07/20 04:56:03;;;;;;;2.55;2.35;;;;;;;13.53;96.67;101577.50;6161121;23;20096;-77
2023/07/20 04:58:30;;;;;;;2.97;2.78;;;;;;;13.59;97.08;101581.09;6160842;23;20139;-77
2023/07/20 05:00:56;;;;;;;2.85;2.65;;;;;;;14.26;95.45;101583.06;6161742;23;20032;-77
2023/07/20 05:03:23;;;;;;;2.45;2.35;;;;;;;14.96;92.43;101580.56;6136421;23;20014;-77
2023/07/20 05:05:50;;;;;;;2.90;2.70;;;;;;;16.05;87.39;101584.06;6163232;23;20443;-77
2023/07/20 05:08:17;;;;;;;2.65;2.50;;;;;;;16.93;81.87;101585.03;6162966;23;20021;-77
2023/07/20 05:10:44;;;;;;;4.47;2.63;;;;;;;18.65;75.10;101583.28;6162044;23;20022;-77
2023/07/20 05:13:10;;;;;;;4.22;2.67;;;;;;;19.91;68.39;101594.09;6138981;23;20447;-77
2023/07/20 05:15:37;;;;;;;2.65;2.45;;;;;;;20.79;64.92;101597.59;6162485;23;20029;-77
2023/07/20 05:18:05;;;;;;;2.53;2.40;;;;;;;21.33;62.28;101599.34;6163004;23;20022;-77
2023/07/20 05:20:33;;;;;;;2.53;2.40;;;;;;;20.29;64.41;101594.75;6162128;23;20037;-77
2023/07/20 05:23:00;;;;;;;2.78;2.58;;;;;;;20.92;63.93;101589.72;6162515;23;20396;-76
2023/07/20 05:25:27;;;;;;;2.63;2.47;;;;;;;22.70;58.19;101587.03;6161823;23;20022;-76
2023/07/20 05:27:57;;;;;;;2.58;2.40;;;;;;;23.87;54.33;101583.28;6157778;23;20089;-76
2023/07/20 05:30:24;;;;;;;2.22;2.10;;;;;;;24.82;51.33;101587.44;6159248;23;20085;-76
2023/07/20 05:32:52;;;;;;;3.30;2.47;;;;;;;25.46;49.63;101593.56;6159729;23;20093;-76
2023/07/20 05:35:22;;;;;;;2.33;2.20;;;;;;;25.69;49.04;101598.63;6159736;23;20022;-77
2023/07/20 05:37:49;;;;;;;2.13;2.03;;;;;;;25.68;48.02;101602.59;6159592;23;20025;-75
2023/07/20 05:40:18;;;;;;;2.25;2.08;;;;;;;25.75;48.07;101599.25;6159381;23;20022;-75
2023/07/20 05:42:46;;;;;;;2.47;2.28;;;;;;;25.83;48.08;101598.09;6159516;23;20025;-75
2023/07/20 05:45:13;;;;;;;2.72;2.03;;;;;;;25.82;48.32;101598.63;6159776;23;20089;-75
2023/07/20 05:47:39;;;;;;;2.10;2.00;;;;;;;25.71;47.52;101596.84;6158705;23;20068;-76
2023/07/20 05:50:06;;;;;;;1.65;1.55;;;;;;;25.97;48.07;101595.34;6158190;23;20073;-75
2023/07/20 05:52:33;;;;;;;2.72;1.75;;;;;;;26.30;47.53;101594.63;6159728;23;20018;-76
2023/07/20 05:55:00;;;;;;;1.83;1.67;;;;;;;26.14;47.65;101590.28;6157916;23;20622;-75
2023/07/20 05:57:26;;;;;;;2.28;1.90;;;;;;;25.92;47.80;101594.94;6158000;23;20452;-76
2023/07/20 05:59:53;;;;;;;2.35;1.67;;;;;;;25.42;48.28;101595.13;6160390;23;20085;-77
2023/07/20 06:02:19;;;;;;;2.17;1.55;;;;;;;25.32;49.03;101592.06;6159961;23;20038;-76
2023/07/20 06:04:46;;;;;;;1.77;1.67;;;;;;;24.95;49.76;101587.47;6160462;23;20049;-77
2023/07/20 06:07:12;;;;;;;4.18;1.45;;;;;;;24.73;50.71;101594.03;6160122;23;20018;-75
2023/07/20 06:09:39;;;;;;;1.95;1.50;;;;;;;24.76;50.26;101597.72;6159235;23;20025;-75
2023/07/20 06:12:07;;;;;;;1.80;1.50;;;;;;;24.57;51.63;101606.63;6160143;23;20447;-74
2023/07/20 06:14:34;;;;;;;2.28;1.42;;;;;;;24.14;51.77;101605.94;6160067;23;20021;-76
2023/07/20 06:17:00;;;;;;;1.60;1.50;;;;;;;24.03;52.56;101609.53;6159353;23;20025;-74
2023/07/20 06:19:27;;;;;;;3.10;1.60;;;;;;;23.72;53.75;101610.88;6159987;23;20018;-75
2023/07/20 06:21:53;;;;;;;1.50;1.40;;;;;;;23.57;54.37;101605.88;6160557;23;20076;-75
2023/07/20 06:24:20;;;;;;;3.55;1.20;;;;;;;23.36;54.95;101607.50;6158004;23;20018;-75
2023/07/20 06:26:46;;;;;;;1.95;1.25;;;;;;;23.34;54.06;101609.25;6159937;23;20014;-75
2023/07/20 06:29:13;;;;;;;1.58;1.48;;;;;;;23.38;55.37;101607.72;6188048;23;20024;-76
2023/07/20 06:31:40;;;;;;;1.52;1.30;;;;;;;23.38;54.45;101609.72;6189343;23;20013;-75
2023/07/20 06:34:06;;;;;;;1.20;1.20;;;;;;;23.35;54.59;101608.00;6189905;23;20494;-75
2023/07/20 06:36:33;;;;;;;1.23;1.10;;;;;;;22.98;54.27;101605.84;6189824;23;20014;-75
2023/07/20 06:39:00;;;;;;;1.38;1.05;;;;;;;22.66;54.17;101613.72;6189107;23;20089;-75
2023/07/20 06:41:29;;;;;;;0.70;0.70;;;;;;;22.58;54.41;101618.94;6189323;23;20451;-75
2023/07/20 06:43:59;;;;;;;2.67;0.90;;;;;;;22.33;54.68;101615.38;6190219;23;20101;-75
2023/07/20 06:46:26;;;;;;;0.95;0.95;;;;;;;22.00;56.02;101621.63;6162692;23;20017;-75
2023/07/20 06:48:54;;;;;;;0.80;0.80;;;;;;;21.80;56.02;101619.97;6163472;23;20025;-74
2023/07/20 06:51:24;;;;;;;1.58;0.90;;;;;;;21.58;57.24;101626.19;6188840;23;20096;-74
2023/07/20 06:53:51;;;;;;;3.42;1.30;;;;;;;21.43;58.64;101624.94;6189883;23;20021;-75
2023/07/20 06:56:18;;;;;;;0.90;0.85;;;;;;;21.21;58.47;101634.53;6189922;23;20017;-75
2023/07/20 06:58:49;;;;;;;0.90;0.90;;;;;;;21.33;57.99;101631.84;6189761;23;20028;-76
2023/07/20 07:01:16;;;;;;;1.95;0.77;;;;;;;21.51;58.02;101626.66;6163153;23;20017;-74
2023/07/20 07:03:43;;;;;;;3.85;0.90;;;;;;;21.64;56.98;101628.84;6189648;23;20020;-75
2023/07/20 07:06:10;;;;;;;1.15;0.88;;;;;;;21.50;57.66;101636.03;6189405;23;20475;-76
2023/07/20 07:08:37;;;;;;;0.90;0.90;;;;;;;20.98;58.90;101627.63;6189233;23;20021;-76
2023/07/20 07:11:05;;;;;;;0.90;0.90;;;;;;;21.02;59.15;101630.81;6189759;23;20076;-76
2023/07/20 07:13:31;;;;;;;0.80;0.80;;;;;;;21.08;58.04;101628.88;6162691;23;20021;-76
2023/07/20 07:15:58;;;;;;;1.70;1.00;;;;;;;21.06;59.20;101630.59;6189692;23;20017;-76
2023/07/20 07:18:26;;;;;;;0.85;0.85;;;;;;;21.04;59.31;101625.66;6189240;23;20097;-75
2023/07/20 07:20:53;;;;;;;0.70;0.70;;;;;;;20.87;58.55;101622.94;6188852;23;20439;-76
2023/07/20 07:23:20;;;;;;;1.10;0.70;;;;;;;20.72;58.49;101617.00;6189772;23;20413;-75
2023/07/20 07:25:47;;;;;;;7.10;1.00;;;;;;;20.63;58.49;101622.66;6189888;23;20013;-76
2023/07/20 07:28:14;;;;;;;1.02;0.95;;;;;;;20.67;58.73;101628.56;6188588;23;20028;-76
2023/07/20 07:30:40;;;;;;;1.60;1.05;;;;;;;20.89;57.62;101627.84;6189901;23;20081;-76
2023/07/20 07:33:08;;;;;;;1.30;0.98;;;;;;;21.18;57.35;101638.22;6190189;23;20056;-77
2023/07/20 07:35:35;;;;;;;1.10;1.00;;;;;;;21.50;56.76;101635.28;6188848;23;20432;-76
2023/07/20 07:38:02;;;;;;;0.93;0.80;;;;;;;21.70;56.23;101631.56;6190242;23;20053;-76
2023/07/20 07:40:44;;;;;;;0.90;0.90;;;;;;;21.92;56.00;101634.22;6190001;23;20017;-75
2023/07/20 07:43:11;;;;;;;3.25;1.02;;;;;;;21.79;55.36;101632.03;6189982;23;20321;-77
2023/07/20 07:45:38;;;;;;;0.90;0.90;;;;;;;21.97;56.07;101633.47;6162941;23;20247;-77
2023/07/20 07:48:05;;;;;;;1.20;1.10;;;;;;;22.43;54.47;101642.91;6189743;23;20021;-76
2023/07/20 07:50:33;;;;;;;0.70;0.70;;;;;;;22.73;50.98;101643.75;6188788;23;20080;-77
2023/07/20 07:53:00;;;;;;;0.70;0.70;;;;;;;22.94;49.52;101639.44;6189706;23;20419;-77
2023/07/20 07:55:26;;;;;;;0.80;0.80;;;;;;;23.04;49.72;101626.28;6189467;23;20100;-76
2023/07/20 07:57:53;;;;;;;0.75;0.70;;;;;;;23.36;49.71;101633.94;6189976;23;20021;-77
2023/07/20 08:00:19;;;;;;;1.20;0.80;;;;;;;23.28;49.00;101631.03;6189584;23;20041;-77
2023/07/20 08:02:48;;;;;;;1.23;0.90;;;;;;;23.15;50.00;101641.78;6190025;23;20440;-76
2023/07/20 08:05:14;;;;;;;1.00;0.90;;;;;;;22.85;49.77;101636.28;6162437;23;20017;-77
2023/07/20 08:07:41;;;;;;;1.30;0.80;;;;;;;22.53;49.68;101636.72;6189190;23;20026;-76
2023/07/20 08:10:08;;;;;;;3.25;0.85;;;;;;;22.31;52.68;101639.53;6189597;23;20097;-76
2023/07/20 08:12:35;;;;;;;0.93;0.80;;;;;;;21.79;51.92;101637.44;6189272;23;20020;-76
2023/07/20 08:15:02;;;;;;;1.00;0.77;;;;;;;21.59;52.45;101635.03;6189633;23;20013;-77
2023/07/20 08:17:29;;;;;;;2.55;0.80;;;;;;;21.11;53.08;101632.56;6189384;23;20022;-76
2023/07/20 08:19:56;;;;;;;1.02;0.90;;;;;;;21.17;52.87;101634.03;6189086;23;20028;-78
2023/07/20 08:22:23;;;;;;;1.70;0.82;;;;;;;21.53;52.08;101635.03;6189375;23;20097;-78
2023/07/20 08:24:49;;;;;;;4.13;0.82;;;;;;;21.58;52.30;101636.28;6162721;23;20053;-76
2023/07/20 08:27:16;;;;;;;0.82;0.70;;;;;;;21.13;52.51;101641.66;6162772;23;20018;-77
2023/07/20 08:29:42;;;;;;;0.85;0.70;;;;;;;20.79;53.60;101638.19;6189277;23;20017;-77
2023/07/20 08:32:09;;;;;;;0.60;0.60;;;;;;;21.22;52.05;101633.31;6162702;23;20072;-76
2023/07/20 08:34:36;;;;;;;0.98;0.63;;;;;;;21.81;47.40;101636.97;6188448;23;20093;-77
2023/07/20 08:37:02;;;;;;;0.63;0.63;;;;;;;22.00;43.83;101634.44;6189720;23;20021;-78
2023/07/20 08:39:29;;;;;;;0.60;0.60;;;;;;;22.23;42.44;101639.31;6189410;23;20061;-77
2023/07/20 08:41:57;;;;;;;0.60;0.60;;;;;;;22.57;46.39;101641.88;6190438;23;20024;-78
2023/07/20 08:44:25;;;;;;;0.55;0.55;;;;;;;22.92;41.76;101641.19;6163801;23;20447;-77
2023/07/20 08:46:52;;;;;;;0.60;0.60;;;;;;;22.87;41.48;101645.41;6190498;23;20025;-77
2023/07/20 08:49:19;;;;;;;0.55;0.52;;;;;;;23.02;43.86;101644.34;6189514;23;20448;-78
2023/07/20 08:51:46;;;;;;;2.28;0.68;;;;;;;23.10;42.61;101635.13;6164118;23;20080;-75
2023/07/20 08:54:14;;;;;;;0.50;0.50;;;;;;;23.32;42.88;101636.19;6190782;23;20385;-78
2023/07/20 08:56:40;;;;;;;0.88;0.70;;;;;;;23.57;43.25;101635.75;6189914;23;20041;-76
2023/07/20 08:59:08;;;;;;;1.30;0.73;;;;;;;23.63;42.75;101638.38;6190574;23;20017;-76
2023/07/20 09:01:37;;;;;;;1.27;0.70;;;;;;;23.74;42.39;101643.00;6163783;23;20072;-78
2023/07/20 09:04:04;;;;;;;0.50;0.50;;;;;;;24.22;42.73;101632.06;6163418;23;20014;-77
2023/07/20 09:06:30;;;;;;;0.55;0.55;;;;;;;24.49;40.38;101635.69;6190365;23;20045;-78
2023/07/20 09:08:57;;;;;;;0.50;0.50;;;;;;;24.45;42.65;101635.25;6163718;23;20863;-80
2023/07/20 09:11:24;;;;;;;0.75;0.70;;;;;;;24.50;40.70;101634.44;6163370;23;20017;-79
2023/07/20 09:14:10;;;;;;;0.60;0.60;;;;;;;24.65;40.41;101631.25;6190569;23;20472;-79
2023/07/20 09:16:55;;;;;;;0.80;0.80;;;;;;;24.49;40.49;101632.97;6187950;23;20402;-78
2023/07/20 09:19:22;;;;;;;0.65;0.65;;;;;;;24.09;39.99;101626.53;6189619;23;20013;-77
2023/07/20 09:21:50;;;;;;;1.00;0.60;;;;;;;23.72;40.85;101632.63;6190616;23;20024;-80
2023/07/20 09:24:19;;;;;;;1.27;0.70;;;;;;;23.51;42.39;101626.88;6164268;23;20408;-78
2023/07/20 09:26:50;;;;;;;0.55;0.55;;;;;;;23.18;42.03;101633.34;6162822;23;20021;-78
2023/07/20 09:29:20;;;;;;;0.70;0.70;;;;;;;23.67;41.55;101632.69;6190248;23;20021;-78
2023/07/20 09:32:03;;;;;;;0.70;0.70;;;;;;;23.87;41.85;101632.97;6189869;23;20065;-78
2023/07/20 09:34:31;;;;;;;0.68;0.63;;;;;;;23.71;41.49;101630.41;6189892;23;20081;-78
2023/07/20 09:37:01;;;;;;;2.00;0.95;;;;;;;23.41;42.89;101636.59;6190701;23;20021;-77
2023/07/20 09:39:29;;;;;;;1.77;0.73;;;;;;;23.15;42.90;101630.91;6190332;23;20013;-77
2023/07/20 09:42:01;;;;;;;1.30;1.20;;;;;;;22.98;42.78;101620.16;6164062;23;20447;-77
2023/07/20 09:44:31;;;;;;;0.60;0.60;;;;;;;23.47;41.37;101626.44;6190288;23;20017;-80
2023/07/20 09:47:03;;;;;;;0.82;0.68;;;;;;;24.01;38.52;101624.88;6189900;23;20029;-79
2023/07/20 09:49:30;;;;;;;0.68;0.68;;;;;;;24.47;38.11;101623.84;6190067;23;20100;-82
2023/07/20 09:52:18;;;;;;;0.70;0.70;;;;;;;24.53;37.87;101622.50;6168822;23;20024;-80
2023/07/20 09:55:06;;;;;;;0.57;0.57;;;;;;;24.89;37.43;101622.22;6164096;23;20026;-79
2023/07/20 09:57:34;;;;;;;0.60;0.60;;;;;;;24.46;37.14;101623.09;6163355;23;20462;-80
2023/07/20 10:00:11;;;;;;;1.38;0.60;;;;;;;24.07;37.90;101620.13;6189999;23;20022;-80
2023/07/20 10:02:44;;;;;;;0.70;0.70;;;;;;;23.59;39.76;101621.66;6163806;23;20013;-80
2023/07/20 10:05:13;;;;;;;0.88;0.57;;;;;;;23.21;39.30;101612.56;6164437;23;20349;-80
2023/07/20 10:07:46;;;;;;;1.35;0.60;;;;;;;22.83;39.01;101619.78;6190089;23;20411;-78
2023/07/20 10:10:16;;;;;;;0.52;0.50;;;;;;;22.72;39.43;101620.56;6190969;23;20362;-78
2023/07/20 10:12:48;;;;;;;0.50;0.50;;;;;;;23.37;38.90;101619.09;6163784;23;20040;-78
2023/07/20 10:15:28;;;;;;;0.50;0.50;;;;;;;24.08;39.38;101616.88;6189762;23;20064;-76
2023/07/20 10:18:18;;;;;;;1.58;0.60;;;;;;;24.78;39.45;101611.53;6190453;23;20530;-76
2023/07/20 10:20:46;;;;;;;0.90;0.65;;;;;;;25.08;36.88;101608.59;6190429;23;20020;-76
2023/07/20 10:23:17;;;;;;;0.47;0.47;;;;;;;25.43;36.33;101615.69;6190802;23;20021;-76
2023/07/20 10:25:45;;;;;;;0.50;0.50;;;;;;;25.67;35.94;101603.84;6190266;23;20088;-76
2023/07/20 10:28:13;;;;;;;0.50;0.50;;;;;;;25.53;34.60;101609.31;6190124;23;20021;-76
2023/07/20 10:30:40;;;;;;;0.60;0.60;;;;;;;25.02;35.62;101608.69;6162599;23;20013;-76
2023/07/20 10:33:07;;;;;;;0.90;0.60;;;;;;;24.83;35.37;101605.97;6190479;23;20049;-76
2023/07/20 10:36:02;;;;;;;0.50;0.50;;;;;;;24.62;36.51;101609.78;6189934;23;20486;-76
2023/07/20 10:38:43;;;;;;;7.22;0.70;;;;;;;25.12;36.58;101611.75;6190322;23;20057;-76
2023/07/20 10:41:20;;;;;;;0.50;0.50;;;;;;;25.33;35.71;101604.44;6190436;23;20414;-76
2023/07/20 10:43:48;;;;;;;0.65;0.65;;;;;;;25.41;35.88;101605.31;6163760;23;20444;-76
2023/07/20 10:46:32;;;;;;;0.50;0.50;;;;;;;25.82;34.52;101607.53;6190163;23;20126;-76
2023/07/20 10:49:02;;;;;;;0.47;0.47;;;;;;;26.04;33.42;101600.16;6189866;23;20025;-76
2023/07/20 10:51:29;;;;;;;2.13;0.70;;;;;;;26.41;33.29;101594.41;6189245;23;20018;-76
2023/07/20 10:53:58;;;;;;;0.70;0.70;;;;;;;26.73;32.86;101598.91;6189910;23;20017;-77
2023/07/20 10:56:31;;;;;;;2.92;0.70;;;;;;;26.45;32.00;101596.81;6189680;23;20020;-76
2023/07/20 10:59:16;;;;;;;1.27;0.60;;;;;;;25.68;34.26;101599.88;6189295;23;20519;-76
2023/07/20 11:01:44;;;;;;;0.50;0.50;;;;;;;24.88;36.68;101594.28;6161307;23;20304;-76
2023/07/20 11:04:11;;;;;;;0.60;0.60;;;;;;;24.60;36.72;101597.44;6190094;23;20036;-76
2023/07/20 11:06:42;;;;;;;0.50;0.50;;;;;;;24.62;36.43;101588.00;6189471;23;20096;-76
2023/07/20 11:09:16;;;;;;;0.60;0.60;;;;;;;24.62;36.42;101590.72;6190066;23;20021;-76
2023/07/20 11:11:47;;;;;;;1.20;0.70;;;;;;;25.08;34.84;101586.81;6163519;23;20014;-76
2023/07/20 11:14:20;;;;;;;;;;;;;;;25.86;35.79;101588.84;6163301;23;20079;-76
2023/07/20 11:16:48;;;;;;;0.50;0.50;;;;;;;25.91;33.98;101584.56;6163661;23;19951;-76
2023/07/20 11:19:17;;;;;;;2.47;0.60;;;;;;;25.41;34.33;101577.31;6189903;23;20021;-76
2023/07/20 11:21:50;;;;;;;0.50;0.50;;;;;;;24.81;36.05;101581.25;6189846;23;20047;-76
2023/07/20 11:24:28;;;;;;;1.15;0.60;;;;;;;24.83;36.00;101576.03;6189856;23;20018;-76
2023/07/20 11:26:55;;;;;;;0.88;0.77;;;;;;;25.07;35.80;101567.00;6189005;23;20418;-76
2023/07/20 11:29:24;;;;;;;0.60;0.60;;;;;;;25.59;35.38;101571.03;6189202;23;20076;-75
2023/07/20 11:32:00;;;;;;;0.98;0.50;;;;;;;25.49;35.28;101572.72;6189769;23;20443;-75